Time;durP1;ratioP1;P1;durP2;ratioP2;P2;SDS_P1;SDS_P2;PMS_P1;PMS_P2;Temp;Humidity;BMP_temperature;BMP_pressure;BME280_temperature;BME280_humidity;BME280_pressure;Samples;Min_cycle;Max_cycle;Signal;HPM_P1;HPM_P2
2021/07/18 00:00:37;;;;;;;22.23;15.00;;;24.10;78.10;;;;;;5036603;28;20467;-82
2021/07/18 00:03:03;;;;;;;19.38;14.80;;;24.10;78.10;;;;;;5036182;28;20030;-83
2021/07/18 00:05:29;;;;;;;24.80;14.98;;;24.10;78.10;;;;;;5037328;28;20029;-82
2021/07/18 00:07:55;;;;;;;25.60;15.75;;;24.10;77.80;;;;;;5036338;28;20412;-83
2021/07/18 00:10:27;;;;;;;20.55;15.00;;;24.10;77.90;;;;;;5035569;28;20021;-82
2021/07/18 00:12:52;;;;;;;18.58;14.77;;;24.10;78.00;;;;;;5022668;28;20033;-82
2021/07/18 00:15:18;;;;;;;18.70;14.15;;;24.10;78.40;;;;;;5020220;28;20049;-81
2021/07/18 00:17:44;;;;;;;23.05;14.85;;;24.10;78.70;;;;;;5035217;28;20379;-82
2021/07/18 00:20:13;;;;;;;21.95;16.42;;;24.10;79.00;;;;;;5042636;28;20499;-82
2021/07/18 00:22:40;;;;;;;20.48;15.82;;;24.00;78.60;;;;;;5035681;28;20026;-82
2021/07/18 00:25:08;;;;;;;20.02;15.15;;;24.00;78.60;;;;;;5035374;28;20336;-84
2021/07/18 00:27:34;;;;;;;17.27;15.43;;;24.00;78.50;;;;;;5035653;28;20026;-84
2021/07/18 00:30:00;;;;;;;18.60;13.88;;;24.00;78.80;;;;;;5035195;28;20017;-83
2021/07/18 00:32:26;;;;;;;23.38;15.27;;;23.90;78.80;;;;;;5034909;28;20091;-82
2021/07/18 00:34:51;;;;;;;20.83;14.40;;;23.90;78.80;;;;;;5034951;28;20028;-82
2021/07/18 00:37:17;;;;;;;22.02;15.25;;;23.90;78.80;;;;;;5034909;28;20036;-82
2021/07/18 00:39:43;;;;;;;18.80;14.85;;;23.90;78.90;;;;;;5035172;28;20029;-82
2021/07/18 00:42:09;;;;;;;19.55;15.75;;;23.90;79.70;;;;;;5034884;28;20468;-82
2021/07/18 00:44:35;;;;;;;22.42;15.43;;;23.90;80.00;;;;;;5035001;28;20017;-82
2021/07/18 00:47:01;;;;;;;20.27;15.25;;;23.80;80.50;;;;;;5034016;28;20079;-83
2021/07/18 00:49:27;;;;;;;21.67;15.70;;;23.80;81.10;;;;;;5033741;28;20025;-83
2021/07/18 00:51:52;;;;;;;20.85;15.95;;;23.80;81.40;;;;;;5034876;28;20060;-82
2021/07/18 00:54:19;;;;;;;16.15;14.45;;;23.80;81.10;;;;;;5036020;28;20395;-82
2021/07/18 00:56:45;;;;;;;18.08;14.55;;;23.70;80.40;;;;;;5033139;28;20116;-82
2021/07/18 00:59:11;;;;;;;18.52;13.88;;;23.70;80.30;;;;;;5013469;28;20439;-82
2021/07/18 01:01:37;;;;;;;18.77;14.02;;;23.70;80.20;;;;;;5022382;28;20032;-83
2021/07/18 01:04:03;;;;;;;20.20;13.25;;;23.70;80.30;;;;;;5034467;28;20467;-81
2021/07/18 01:06:29;;;;;;;23.55;14.30;;;23.70;78.70;;;;;;5034022;28;20022;-83
2021/07/18 01:08:55;;;;;;;22.20;13.32;;;23.70;80.10;;;;;;5034691;28;20356;-83
2021/07/18 01:11:21;;;;;;;18.10;12.93;;;23.70;78.70;;;;;;5016358;28;20021;-83
2021/07/18 01:13:47;;;;;;;22.83;14.70;;;23.70;77.50;;;;;;5035742;28;20053;-83
2021/07/18 01:16:13;;;;;;;16.27;13.07;;;23.80;77.40;;;;;;5041414;28;20022;-82
2021/07/18 01:18:42;;;;;;;16.50;14.00;;;23.80;76.90;;;;;;5052995;28;20061;-81
2021/07/18 01:21:09;;;;;;;17.40;13.77;;;23.80;79.20;;;;;;5054535;28;20028;-82
2021/07/18 01:23:37;;;;;;;23.73;15.50;;;23.80;78.10;;;;;;5038778;28;20097;-82
2021/07/18 01:26:04;;;;;;;20.13;14.43;;;23.70;78.00;;;;;;5035943;28;20025;-85
2021/07/18 01:28:30;;;;;;;22.23;12.70;;;23.80;77.70;;;;;;5027600;28;20025;-84
2021/07/18 01:30:56;;;;;;;19.90;14.20;;;23.80;76.60;;;;;;5027860;28;20506;-85
2021/07/18 01:33:22;;;;;;;21.92;14.73;;;23.70;77.50;;;;;;5033826;28;20068;-86
2021/07/18 01:35:48;;;;;;;19.88;15.68;;;23.70;79.30;;;;;;5014212;28;20021;-84
2021/07/18 01:38:15;;;;;;;18.88;15.52;;;23.70;80.00;;;;;;5030048;28;20052;-85
2021/07/18 01:40:41;;;;;;;21.65;13.98;;;23.70;80.20;;;;;;5034618;28;20028;-86
2021/07/18 01:43:07;;;;;;;20.83;14.57;;;23.70;78.80;;;;;;5034738;28;20021;-85
2021/07/18 01:45:34;;;;;;;21.55;14.30;;;23.70;79.80;;;;;;5034580;28;20021;-83
2021/07/18 01:47:59;;;;;;;17.08;14.52;;;23.70;80.00;;;;;;5033953;28;20033;-85
2021/07/18 01:50:26;;;;;;;20.55;15.35;;;23.80;79.80;;;;;;5034454;28;20029;-83
2021/07/18 01:52:53;;;;;;;25.38;15.95;;;23.80;81.50;;;;;;5033836;28;20037;-82
2021/07/18 01:55:19;;;;;;;21.63;16.10;;;23.70;82.00;;;;;;5032579;28;20103;-82
2021/07/18 01:57:46;;;;;;;24.45;17.75;;;23.70;82.30;;;;;;5033423;28;20179;-81
2021/07/18 02:00:13;;;;;;;;;;;23.80;82.50;;;;;;5020242;28;20049;-82
2021/07/18 02:02:45;;;;;;;20.55;15.15;;;23.70;81.40;;;;;;5015519;28;20288;-82
2021/07/18 02:05:12;;;;;;;17.92;14.25;;;23.70;81.10;;;;;;5034119;28;20040;-83
2021/07/18 02:07:38;;;;;;;19.75;14.18;;;23.80;80.60;;;;;;5015966;28;20022;-85
2021/07/18 02:10:06;;;;;;;20.27;13.30;;;23.80;79.00;;;;;;5034144;28;20026;-85
2021/07/18 02:12:35;;;;;;;21.15;14.95;;;23.90;77.10;;;;;;5017390;28;20041;-83
2021/07/18 02:15:03;;;;;;;20.33;16.05;;;23.90;80.30;;;;;;5033974;28;20037;-85
2021/07/18 02:17:28;;;;;;;19.23;15.88;;;23.90;80.60;;;;;;5033914;28;20071;-83
2021/07/18 02:19:54;;;;;;;23.00;15.82;;;24.00;81.10;;;;;;5015990;28;20015;-84
2021/07/18 02:22:31;;;;;;;24.50;15.60;;;24.10;80.80;;;;;;5033888;28;20108;-83
2021/07/18 02:24:57;;;;;;;22.00;15.73;;;24.10;80.70;;;;;;5037260;28;20021;-84
2021/07/18 02:27:23;;;;;;;17.02;14.98;;;24.10;80.40;;;;;;5041037;28;20037;-84
2021/07/18 02:29:49;;;;;;;21.98;13.90;;;24.20;79.10;;;;;;5036329;28;20021;-84
2021/07/18 02:32:15;;;;;;;27.02;13.07;;;24.20;77.50;;;;;;5015540;28;20124;-84
2021/07/18 02:34:40;;;;;;;20.08;12.73;;;24.30;75.50;;;;;;5033594;28;20025;-83
2021/07/18 02:37:06;;;;;;;17.55;12.20;;;24.30;74.80;;;;;;5015577;28;20014;-87
2021/07/18 02:39:32;;;;;;;17.40;12.48;;;24.30;74.60;;;;;;5025451;28;20026;-85
2021/07/18 02:41:58;;;;;;;20.00;12.57;;;24.40;74.10;;;;;;5019622;28;20402;-85
2021/07/18 02:44:24;;;;;;;14.32;10.20;;;24.40;73.70;;;;;;5033790;28;20030;-85
2021/07/18 02:46:50;;;;;;;18.48;12.02;;;24.50;71.70;;;;;;5033167;28;20025;-84
2021/07/18 02:49:15;;;;;;;19.00;11.57;;;24.60;71.60;;;;;;5033742;28;20025;-85
2021/07/18 02:51:41;;;;;;;13.05;10.20;;;24.60;70.80;;;;;;5014846;28;20492;-83
2021/07/18 02:54:07;;;;;;;18.63;10.65;;;24.70;69.90;;;;;;5032972;28;20096;-85
2021/07/18 02:56:33;;;;;;;16.23;11.05;;;24.80;69.50;;;;;;5033214;28;20463;-83
2021/07/18 02:58:59;;;;;;;19.90;10.10;;;24.90;69.00;;;;;;5027179;28;20017;-84
2021/07/18 03:01:25;;;;;;;19.67;11.00;;;25.00;67.60;;;;;;5025836;28;20032;-84
2021/07/18 03:03:51;;;;;;;13.70;10.50;;;25.10;67.30;;;;;;5015160;28;20026;-85
2021/07/18 03:06:16;;;;;;;12.65;9.93;;;25.20;66.90;;;;;;5032591;28;20032;-83
2021/07/18 03:08:42;;;;;;;13.43;10.07;;;25.30;66.20;;;;;;5015067;28;20036;-84
2021/07/18 03:11:08;;;;;;;12.80;9.20;;;25.40;65.80;;;;;;5033201;28;20068;-84
2021/07/18 03:13:34;;;;;;;13.18;8.52;;;25.50;65.80;;;;;;5032861;28;20562;-84
2021/07/18 03:16:00;;;;;;;14.07;8.77;;;25.50;65.40;;;;;;5032534;28;20053;-85
2021/07/18 03:18:26;;;;;;;10.13;7.82;;;25.60;64.60;;;;;;5044809;28;20363;-85
2021/07/18 03:20:52;;;;;;;9.10;8.18;;;25.60;63.90;;;;;;5018741;28;20017;-85
2021/07/18 03:23:17;;;;;;;11.82;8.13;;;25.60;63.80;;;;;;5034095;28;20031;-83
2021/07/18 03:25:43;;;;;;;13.48;7.72;;;25.60;63.50;;;;;;5025552;28;20018;-84
2021/07/18 03:28:09;;;;;;;12.50;8.65;;;25.60;63.10;;;;;;5033657;28;20022;-83
2021/07/18 03:30:35;;;;;;;12.60;8.10;;;25.70;63.00;;;;;;5032784;28;20483;-82
2021/07/18 03:33:01;;;;;;;12.75;8.70;;;25.70;63.10;;;;;;5014906;28;20025;-81
2021/07/18 03:35:27;;;;;;;16.88;8.15;;;25.80;62.30;;;;;;5022441;28;20534;-82
2021/07/18 03:37:53;;;;;;;11.30;8.07;;;25.80;62.40;;;;;;5015757;28;20025;-83
2021/07/18 03:40:19;;;;;;;12.00;8.48;;;25.90;62.10;;;;;;5033971;28;20033;-84
2021/07/18 03:42:45;;;;;;;8.93;7.87;;;26.00;61.60;;;;;;5034450;28;20097;-83
2021/07/18 03:45:13;;;;;;;8.67;7.77;;;26.00;61.20;;;;;;5034099;28;20259;-84
2021/07/18 03:47:40;;;;;;;11.90;8.63;;;26.00;61.10;;;;;;5046734;28;20013;-84
2021/07/18 03:50:07;;;;;;;8.90;7.97;;;26.00;60.90;;;;;;5053227;28;20439;-82
2021/07/18 03:52:33;;;;;;;9.32;8.25;;;26.10;61.30;;;;;;5050341;28;20037;-83
2021/07/18 03:54:58;;;;;;;8.80;7.97;;;26.10;61.00;;;;;;5044448;28;20448;-84
2021/07/18 03:57:24;;;;;;;9.88;7.88;;;26.20;60.50;;;;;;5049673;28;20530;-82
2021/07/18 03:59:51;;;;;;;10.05;8.57;;;26.20;60.30;;;;;;5021063;28;20029;-83
2021/07/18 04:02:17;;;;;;;10.90;8.70;;;26.20;60.70;;;;;;5036534;28;20022;-84
2021/07/18 04:04:43;;;;;;;10.00;8.25;;;26.20;60.50;;;;;;5036865;28;20144;-84
2021/07/18 04:07:09;;;;;;;11.52;8.05;;;26.30;60.40;;;;;;5036981;28;20108;-82
2021/07/18 04:09:35;;;;;;;12.75;9.05;;;26.40;60.50;;;;;;5016670;28;20033;-84
2021/07/18 04:12:01;;;;;;;12.95;9.13;;;26.50;60.80;;;;;;5031640;28;20123;-84
2021/07/18 04:14:27;;;;;;;12.48;8.90;;;26.60;60.00;;;;;;5019284;28;20491;-83
2021/07/18 04:16:52;;;;;;;13.23;9.60;;;26.60;61.40;;;;;;5036247;28;20025;-84
2021/07/18 04:19:18;;;;;;;14.05;8.60;;;26.70;61.10;;;;;;5036506;28;20521;-85
2021/07/18 04:21:44;;;;;;;12.98;8.68;;;26.90;60.00;;;;;;5035826;28;20025;-83
2021/07/18 04:24:10;;;;;;;11.15;8.40;;;27.00;59.00;;;;;;5035299;28;20021;-83
2021/07/18 04:26:36;;;;;;;16.88;9.10;;;27.10;58.80;;;;;;5035688;28;20037;-84
2021/07/18 04:29:02;;;;;;;16.55;9.02;;;27.20;58.50;;;;;;5035343;28;20453;-84
2021/07/18 04:31:28;;;;;;;15.07;8.50;;;27.30;57.70;;;;;;5018267;28;20372;-84
2021/07/18 04:33:53;;;;;;;11.13;8.07;;;27.40;57.60;;;;;;5035121;28;20038;-83
2021/07/18 04:36:19;;;;;;;14.18;8.52;;;27.40;57.00;;;;;;5013385;28;20030;-84
2021/07/18 04:38:45;;;;;;;10.60;7.75;;;27.40;57.10;;;;;;5025815;28;20026;-84
2021/07/18 04:41:11;;;;;;;8.30;7.47;;;27.50;56.90;;;;;;5017302;28;20407;-82
2021/07/18 04:43:37;;;;;;;12.70;7.85;;;27.50;56.70;;;;;;5035111;28;20030;-83
2021/07/18 04:46:04;;;;;;;11.43;7.95;;;27.60;56.40;;;;;;5034873;28;20032;-83
2021/07/18 04:48:31;;;;;;;9.27;7.40;;;27.60;56.10;;;;;;5034646;28;20029;-81
2021/07/18 04:50:57;;;;;;;9.93;7.53;;;27.60;55.70;;;;;;5017968;28;20030;-83
2021/07/18 04:53:23;;;;;;;8.95;7.25;;;27.70;56.60;;;;;;5034643;28;20037;-82
2021/07/18 04:55:48;;;;;;;10.95;7.72;;;27.80;57.20;;;;;;5035100;28;20021;-84
2021/07/18 04:58:14;;;;;;;10.27;7.85;;;27.80;55.70;;;;;;5034925;28;20443;-83
2021/07/18 05:00:40;;;;;;;9.68;7.40;;;27.90;54.80;;;;;;5035468;28;20022;-82
2021/07/18 05:03:06;;;;;;;9.27;7.50;;;27.90;54.60;;;;;;5034809;28;20027;-82
2021/07/18 05:05:32;;;;;;;10.55;7.88;;;27.90;54.70;;;;;;5034702;28;20354;-83
2021/07/18 05:08:01;;;;;;;10.65;7.75;;;27.90;56.30;;;;;;5017544;28;20033;-82
2021/07/18 05:10:28;;;;;;;7.63;6.82;;;28.10;55.10;;;;;;5035868;28;20029;-85
2021/07/18 05:12:56;;;;;;;7.50;6.70;;;28.50;52.70;;;;;;5038247;28;20030;-85
2021/07/18 05:15:24;;;;;;;8.35;6.65;;;29.10;51.10;;;;;;5018909;28;20045;-84
2021/07/18 05:17:50;;;;;;;8.60;7.20;;;29.90;49.60;;;;;;5033403;28;20033;-83
2021/07/18 05:20:18;;;;;;;9.32;7.30;;;31.00;48.10;;;;;;5015848;28;20029;-85
2021/07/18 05:22:44;;;;;;;10.30;6.45;;;32.00;46.70;;;;;;5034547;28;20104;-85
2021/07/18 05:25:11;;;;;;;7.30;6.20;;;32.90;45.30;;;;;;5034144;28;20452;-84
2021/07/18 05:27:38;;;;;;;11.13;7.10;;;33.60;44.30;;;;;;5016696;28;20399;-84
2021/07/18 05:30:06;;;;;;;12.38;7.20;;;34.50;42.10;;;;;;5034687;28;20028;-84
2021/07/18 05:32:32;;;;;;;13.63;7.57;;;35.10;40.70;;;;;;5034444;28;20041;-84
2021/07/18 05:34:58;;;;;;;6.97;6.20;;;35.60;40.00;;;;;;5034758;28;20017;-85
2021/07/18 05:37:24;;;;;;;6.73;6.03;;;36.20;38.60;;;;;;5035007;28;20022;-86
2021/07/18 05:39:50;;;;;;;7.28;6.57;;;36.60;38.10;;;;;;5017628;28;20022;-85
2021/07/18 05:42:15;;;;;;;8.97;6.20;;;36.30;37.10;;;;;;5034383;28;20029;-84
2021/07/18 05:44:42;;;;;;;7.05;6.45;;;36.00;38.00;;;;;;5034472;28;20533;-83
2021/07/18 05:47:10;;;;;;;8.25;5.93;;;36.50;37.70;;;;;;5035754;28;20067;-84
2021/07/18 05:49:36;;;;;;;7.93;6.65;;;37.10;37.30;;;;;;5032883;28;20479;-84
2021/07/18 05:52:04;;;;;;;7.20;6.13;;;37.70;36.50;;;;;;5006894;28;20070;-84
2021/07/18 05:54:30;;;;;;;8.07;6.07;;;38.10;35.80;;;;;;5034344;28;20049;-84
2021/07/18 05:56:56;;;;;;;;;;;38.10;35.50;;;;;;5035416;28;20022;-86
2021/07/18 05:59:22;;;;;;;6.32;5.13;;;38.10;36.80;;;;;;5036187;28;20659;-85
2021/07/18 06:01:49;;;;;;;7.25;5.78;;;38.20;35.40;;;;;;5026768;28;20104;-83
2021/07/18 06:04:15;;;;;;;7.65;6.00;;;38.70;35.10;;;;;;5016899;28;20102;-84
2021/07/18 06:06:41;;;;;;;6.53;5.88;;;39.30;34.10;;;;;;5036705;28;20020;-83
2021/07/18 06:09:07;;;;;;;7.47;6.28;;;39.40;33.30;;;;;;5035243;28;20021;-83
2021/07/18 06:11:33;;;;;;;6.75;5.65;;;39.70;34.20;;;;;;5024163;28;20108;-84
2021/07/18 06:13:59;;;;;;;6.78;5.32;;;40.50;33.20;;;;;;5033370;28;20048;-84
2021/07/18 06:16:25;;;;;;;7.55;6.78;;;41.40;32.10;;;;;;5033862;28;20018;-83
2021/07/18 06:18:51;;;;;;;8.30;6.28;;;41.40;31.70;;;;;;5036670;28;20025;-84
2021/07/18 06:21:17;;;;;;;10.60;6.35;;;40.80;32.30;;;;;;5029050;28;20025;-83
2021/07/18 06:23:43;;;;;;;8.18;6.53;;;40.50;32.30;;;;;;5046923;28;20029;-84
2021/07/18 06:26:09;;;;;;;8.85;7.45;;;40.90;32.60;;;;;;5042507;28;20029;-82
2021/07/18 06:28:35;;;;;;;6.80;6.10;;;41.80;31.70;;;;;;5015451;28;20036;-83
2021/07/18 06:31:02;;;;;;;14.65;5.93;;;42.00;30.80;;;;;;5033089;28;20502;-81
2021/07/18 06:33:28;;;;;;;7.22;6.53;;;41.40;31.30;;;;;;5010260;28;20029;-84
2021/07/18 06:35:54;;;;;;;9.30;5.80;;;40.40;31.70;;;;;;5032874;28;20028;-83
2021/07/18 06:38:20;;;;;;;11.00;6.78;;;39.80;33.00;;;;;;5033158;28;20033;-83
2021/07/18 06:40:46;;;;;;;8.95;5.72;;;40.10;33.20;;;;;;5033390;28;20014;-85
2021/07/18 06:43:12;;;;;;;6.28;5.68;;;41.20;32.40;;;;;;5032630;28;20039;-84
2021/07/18 06:45:38;;;;;;;8.55;6.15;;;42.00;31.30;;;;;;5032977;28;20018;-84
2021/07/18 06:48:04;;;;;;;7.22;6.50;;;43.00;30.40;;;;;;5033369;28;20055;-82
2021/07/18 06:50:29;;;;;;;;;;;42.80;29.90;;;;;;5033652;28;20491;-82
2021/07/18 06:52:55;;;;;;;6.18;5.68;;;43.30;31.40;;;;;;5035279;28;19920;-83
2021/07/18 06:55:21;;;;;;;;;;;44.10;29.60;;;;;;5034192;28;20057;-82
2021/07/18 06:57:51;;;;;;;9.85;5.97;;;44.20;30.10;;;;;;5033565;28;19905;-84
2021/07/18 07:00:19;;;;;;;10.93;6.47;;;43.80;29.40;;;;;;5027812;28;20026;-84
2021/07/18 07:02:46;;;;;;;8.85;6.30;;;;;;;;;;5032016;28;20096;-84
2021/07/18 07:05:12;;;;;;;8.00;6.20;;;45.30;28.30;;;;;;5012475;28;20033;-84
2021/07/18 07:07:39;;;;;;;6.47;5.45;;;45.60;28.40;;;;;;5015361;28;20109;-84
2021/07/18 07:10:06;;;;;;;9.60;6.60;;;45.40;28.00;;;;;;5032453;28;20029;-83
2021/07/18 07:12:32;;;;;;;9.35;6.43;;;43.80;28.60;;;;;;5028074;28;20030;-85
2021/07/18 07:15:00;;;;;;;;;;;42.10;29.70;;;;;;5027689;28;20041;-82
2021/07/18 07:17:26;;;;;;;7.40;6.20;;;41.70;31.20;;;;;;5015951;28;19996;-86
2021/07/18 07:19:52;;;;;;;;;;;42.40;30.80;;;;;;5004140;28;20112;-84
2021/07/18 07:22:18;;;;;;;7.72;5.88;;;43.80;31.30;;;;;;5029568;28;19958;-82
2021/07/18 07:24:43;;;;;;;;;;;44.60;29.10;;;;;;4999903;28;20487;-83
2021/07/18 07:27:09;;;;;;;7.03;6.32;;;44.80;29.90;;;;;;5005961;28;20370;-85
2021/07/18 07:29:35;;;;;;;;;;;44.90;28.50;;;;;;5019716;28;20467;-84
2021/07/18 07:32:01;;;;;;;9.32;6.57;;;43.80;29.30;;;;;;5018711;28;19952;-83
2021/07/18 07:34:26;;;;;;;;;;;43.80;29.60;;;;;;5015665;28;20387;-82
2021/07/18 07:36:52;;;;;;;7.75;6.95;;;43.10;29.90;;;;;;5015605;28;19928;-86
2021/07/18 07:39:18;;;;;;;8.85;7.30;;;42.10;30.00;;;;;;5024313;28;20087;-82
2021/07/18 07:41:44;;;;;;;7.60;6.80;;;40.80;30.90;;;;;;5041578;28;20025;-82
2021/07/18 07:44:10;;;;;;;10.05;7.82;;;39.30;32.90;;;;;;5036102;28;20372;-84
2021/07/18 07:46:36;;;;;;;13.05;7.45;;;37.80;34.50;;;;;;5018457;28;20029;-82
2021/07/18 07:49:02;;;;;;;;;;;36.80;35.60;;;;;;5027877;28;20049;-89
2021/07/18 07:51:28;;;;;;;11.75;7.75;;;35.90;35.60;;;;;;5031067;28;19972;-83
2021/07/18 07:53:55;;;;;;;10.13;7.27;;;35.30;37.80;;;;;;5008506;28;20052;-84
2021/07/18 07:56:20;;;;;;;11.90;7.97;;;35.00;38.80;;;;;;5019579;28;20030;-83
2021/07/18 07:58:47;;;;;;;9.97;8.50;;;34.60;38.60;;;;;;5017566;28;20018;-85
2021/07/18 08:01:13;;;;;;;10.52;8.40;;;34.20;39.00;;;;;;5029355;28;20267;-85
2021/07/18 08:03:39;;;;;;;11.00;8.43;;;33.80;39.50;;;;;;5047489;28;20025;-82
2021/07/18 08:06:05;;;;;;;11.20;7.07;;;33.40;40.30;;;;;;5001778;28;20724;-85
2021/07/18 08:08:30;;;;;;;11.07;8.53;;;33.20;41.10;;;;;;5018385;28;20476;-84
2021/07/18 08:10:57;;;;;;;11.13;8.37;;;34.20;40.40;;;;;;5000858;28;20022;-84
2021/07/18 08:13:24;;;;;;;11.25;8.23;;;35.50;39.30;;;;;;5017674;28;20033;-83
2021/07/18 08:15:49;;;;;;;8.18;7.45;;;37.40;37.50;;;;;;4995889;28;20630;-88
2021/07/18 08:18:29;;;;;;;9.88;7.68;;;39.50;34.70;;;;;;4994113;28;20061;-90
2021/07/18 08:20:55;;;;;;;8.48;7.65;;;41.60;32.80;;;;;;5002671;28;20025;-89
2021/07/18 08:23:21;;;;;;;12.13;7.07;;;43.40;30.90;;;;;;5000637;28;20028;-85
2021/07/18 08:25:47;;;;;;;;;;;44.90;29.50;;;;;;5019681;28;20025;-86
2021/07/18 08:28:13;;;;;;;8.00;7.30;;;45.90;30.00;;;;;;5020703;28;20330;-92
2021/07/18 08:30:39;;;;;;;7.13;6.50;;;45.80;28.30;;;;;;5017701;28;20014;-89
2021/07/18 08:33:07;;;;;;;7.82;6.70;;;45.50;28.50;;;;;;5020101;28;20072;-90
2021/07/18 08:35:33;;;;;;;9.80;7.32;;;46.30;28.30;;;;;;5022725;28;20018;-88
2021/07/18 08:37:58;;;;;;;9.88;7.28;;;45.70;27.90;;;;;;5020504;28;20084;-89
2021/07/18 08:40:24;;;;;;;8.25;6.63;;;44.60;28.30;;;;;;5024566;28;20126;-89
2021/07/18 08:42:51;;;;;;;14.70;8.77;;;43.30;29.20;;;;;;5035882;28;20010;-86
2021/07/18 08:45:17;;;;;;;9.20;8.38;;;41.70;30.20;;;;;;5037206;28;20014;-87
2021/07/18 08:47:43;;;;;;;9.18;8.00;;;40.20;31.70;;;;;;5016258;28;20044;-88
2021/07/18 08:50:09;;;;;;;10.40;8.32;;;39.00;32.80;;;;;;5014777;28;20057;-90
2021/07/18 08:52:36;;;;;;;;;;;37.90;34.30;;;;;;5012545;28;20041;-87
2021/07/18 08:55:03;;;;;;;10.48;8.65;;;37.10;34.90;;;;;;5036659;28;19909;-90
2021/07/18 08:57:30;;;;;;;12.13;9.30;;;37.00;36.10;;;;;;5039267;28;20034;-91
2021/07/18 08:59:56;;;;;;;11.35;9.00;;;36.50;36.60;;;;;;5036760;28;20097;-90
2021/07/18 09:02:24;;;;;;;12.02;9.23;;;35.80;37.80;;;;;;5018764;28;20492;-89
2021/07/18 09:04:50;;;;;;;15.82;8.35;;;35.00;39.00;;;;;;5021530;28;20030;-91
2021/07/18 09:07:19;;;;;;;10.07;8.65;;;35.40;40.20;;;;;;5017329;28;20332;-87
2021/07/18 09:09:48;;;;;;;10.65;8.52;;;37.00;38.40;;;;;;5012718;28;20446;-89
2021/07/18 09:12:16;;;;;;;14.63;11.50;;;37.80;35.90;;;;;;5006183;28;20057;-88
2021/07/18 09:14:48;;;;;;;9.98;8.98;;;37.60;35.80;;;;;;5031029;28;20050;-89
2021/07/18 09:17:22;;;;;;;10.45;8.85;;;36.80;36.50;;;;;;4993292;28;20501;-87
2021/07/18 09:19:48;;;;;;;9.85;8.95;;;35.90;37.50;;;;;;5016737;28;20021;-88
2021/07/18 09:22:17;;;;;;;10.20;8.52;;;36.80;37.30;;;;;;5023824;28;20530;-89
2021/07/18 09:24:50;;;;;;;11.07;9.05;;;36.90;36.80;;;;;;5030603;28;20026;-88
2021/07/18 09:27:27;;;;;;;11.77;9.63;;;36.50;36.70;;;;;;5015795;28;20045;-90
2021/07/18 09:30:11;;;;;;;10.75;8.38;;;35.80;37.60;;;;;;5029282;28;20121;-91
2021/07/18 09:32:41;;;;;;;12.88;10.38;;;35.20;38.30;;;;;;5030818;28;20129;-90
2021/07/18 09:35:15;;;;;;;13.63;9.77;;;34.70;39.10;;;;;;5032828;28;20065;-89
2021/07/18 09:37:47;;;;;;;11.43;9.57;;;34.30;39.40;;;;;;5024211;28;20018;-90
2021/07/18 09:40:20;;;;;;;11.88;9.55;;;33.90;40.00;;;;;;5001673;28;20443;-89
2021/07/18 09:42:48;;;;;;;13.00;9.60;;;33.40;40.30;;;;;;5023668;28;20022;-91
2021/07/18 09:45:17;;;;;;;13.98;10.63;;;33.10;41.20;;;;;;5038824;28;20399;-89
2021/07/18 09:47:53;;;;;;;11.43;9.38;;;33.20;41.90;;;;;;5015930;28;20018;-88
2021/07/18 09:50:20;;;;;;;14.35;9.50;;;33.20;41.80;;;;;;5021448;28;20025;-90
2021/07/18 09:52:48;;;;;;;15.25;9.80;;;33.10;42.10;;;;;;5024390;28;20026;-90
2021/07/18 09:55:22;;;;;;;11.13;10.02;;;32.90;42.50;;;;;;5018921;28;20026;-91
2021/07/18 09:57:52;;;;;;;11.95;10.32;;;32.90;42.80;;;;;;5001058;28;20026;-89
2021/07/18 10:00:22;;;;;;;12.15;10.07;;;32.70;43.30;;;;;;5018820;28;20121;-88
2021/07/18 10:02:51;;;;;;;15.13;10.02;;;32.50;43.80;;;;;;5033638;28;20025;-89
2021/07/18 10:05:28;;;;;;;11.13;9.48;;;33.00;43.90;;;;;;5016476;28;20026;-92
2021/07/18 10:08:08;;;;;;;13.80;10.80;;;33.30;42.30;;;;;;5038523;28;20018;-91
2021/07/18 10:10:35;;;;;;;14.75;9.43;;;33.20;41.80;;;;;;5020975;28;20022;-89
2021/07/18 10:13:03;;;;;;;14.10;11.27;;;33.00;42.50;;;;;;5010902;28;20022;-89
2021/07/18 10:15:29;;;;;;;11.65;9.23;;;32.80;42.30;;;;;;5022406;28;20495;-89
2021/07/18 10:17:56;;;;;;;10.65;9.15;;;32.70;42.50;;;;;;5019202;28;20013;-88
2021/07/18 10:20:26;;;;;;;11.68;10.48;;;32.60;43.40;;;;;;5020587;28;20028;-89
2021/07/18 10:22:55;;;;;;;10.95;9.77;;;32.50;42.80;;;;;;5019990;28;20078;-91
2021/07/18 10:25:23;;;;;;;13.85;9.18;;;33.10;42.40;;;;;;5013754;28;20046;-87
2021/07/18 10:27:50;;;;;;;11.95;8.80;;;34.40;41.50;;;;;;5020498;28;20040;-89
2021/07/18 10:30:19;;;;;;;14.75;8.90;;;36.10;39.20;;;;;;5026756;28;20022;-93
2021/07/18 10:32:47;;;;;;;11.57;8.13;;;37.90;37.20;;;;;;4991057;28;20046;-90
2021/07/18 10:35:14;;;;;;;11.10;8.40;;;38.60;35.30;;;;;;4999157;28;20034;-89
2021/07/18 10:37:41;;;;;;;12.50;8.75;;;38.60;34.80;;;;;;4958258;28;20043;-91
2021/07/18 10:40:13;;;;;;;13.70;8.18;;;38.10;35.70;;;;;;5007981;28;20037;-91
2021/07/18 10:42:39;;;;;;;10.85;7.93;;;37.50;35.80;;;;;;4984252;28;20121;-89
2021/07/18 10:45:26;;;;;;;10.60;8.02;;;36.70;36.60;;;;;;4983153;28;20089;-89
2021/07/18 10:48:06;;;;;;;10.10;9.10;;;36.00;37.50;;;;;;4983257;28;20031;-88
2021/07/18 10:50:44;;;;;;;11.63;9.55;;;35.40;39.30;;;;;;5003611;28;20033;-88
2021/07/18 10:53:18;;;;;;;14.13;10.15;;;35.00;39.30;;;;;;5006145;28;20077;-90
2021/07/18 10:55:44;;;;;;;9.80;8.88;;;34.70;40.40;;;;;;4985469;28;20038;-93
2021/07/18 10:58:10;;;;;;;14.37;9.40;;;34.10;39.80;;;;;;5002180;28;20608;-88
2021/07/18 11:00:48;;;;;;;10.95;9.38;;;33.50;40.60;;;;;;4989366;28;20034;-89
2021/07/18 11:03:14;;;;;;;11.70;10.13;;;33.40;41.40;;;;;;4988839;28;20112;-93
2021/07/18 11:05:41;;;;;;;13.67;10.87;;;33.10;41.70;;;;;;4979744;28;20069;-91
2021/07/18 11:08:07;;;;;;;12.48;10.43;;;32.60;42.40;;;;;;4987583;28;20153;-92
2021/07/18 11:10:50;;;;;;;9.83;8.83;;;32.20;42.40;;;;;;5007705;28;20069;-88
2021/07/18 11:13:17;;;;;;;12.23;9.70;;;32.00;43.70;;;;;;5017083;28;20491;-91
2021/07/18 11:15:43;;;;;;;14.07;9.27;;;32.10;43.30;;;;;;5021188;28;20053;-90
2021/07/18 11:18:18;;;;;;;14.25;11.27;;;32.40;43.30;;;;;;5032831;28;20368;-88
2021/07/18 11:20:56;;;;;;;14.52;9.63;;;32.50;43.50;;;;;;5050777;28;20028;-94
2021/07/18 11:23:42;;;;;;;13.43;10.05;;;32.40;43.40;;;;;;5055469;28;20032;-89
2021/07/18 11:26:18;;;;;;;12.30;10.02;;;32.30;43.20;;;;;;5027189;28;20188;-91
2021/07/18 11:31:12;;;;;;;11.48;9.68;;;31.90;43.00;;;;;;5057422;28;20044;-89
2021/07/18 11:33:49;;;;;;;11.45;10.27;;;31.70;43.60;;;;;;5038100;28;20041;-90
2021/07/18 11:36:16;;;;;;;12.13;10.80;;;31.50;45.00;;;;;;5032990;28;20045;-90
2021/07/18 11:38:43;;;;;;;12.65;10.30;;;31.60;44.60;;;;;;5025495;28;20029;-89
2021/07/18 11:41:23;;;;;;;12.85;11.07;;;31.40;44.70;;;;;;5026079;28;20037;-90
2021/07/18 11:43:52;;;;;;;13.45;10.85;;;31.50;45.20;;;;;;5029128;28;20073;-88
2021/07/18 11:46:21;;;;;;;20.00;12.82;;;31.70;45.20;;;;;;5042915;28;20021;-92
2021/07/18 11:48:48;;;;;;;15.48;10.88;;;31.80;44.90;;;;;;5029391;28;20023;-88
2021/07/18 11:51:16;;;;;;;14.13;10.80;;;31.70;44.70;;;;;;5024675;28;20060;-89
2021/07/18 11:53:47;;;;;;;16.48;11.30;;;31.70;44.80;;;;;;5042134;28;20053;-90
2021/07/18 11:56:25;;;;;;;19.80;12.18;;;31.60;45.10;;;;;;5026226;28;20479;-91
2021/07/18 11:58:52;;;;;;;12.90;11.55;;;31.60;45.00;;;;;;5049151;28;20100;-89
2021/07/18 12:01:26;;;;;;;14.13;11.23;;;31.60;44.90;;;;;;5013908;28;20100;-89
2021/07/18 12:03:53;;;;;;;14.15;12.35;;;31.60;45.00;;;;;;5016605;28;20036;-92
2021/07/18 12:06:28;;;;;;;15.30;12.02;;;31.70;45.70;;;;;;5021540;28;20022;-88
2021/07/18 12:08:57;;;;;;;15.52;11.73;;;31.90;44.80;;;;;;5038746;28;20044;-90
2021/07/18 12:11:32;;;;;;;14.32;10.32;;;32.10;45.10;;;;;;5041358;28;20038;-87
2021/07/18 12:14:01;;;;;;;13.68;11.13;;;32.30;44.70;;;;;;5040746;28;20045;-88
2021/07/18 12:16:29;;;;;;;17.25;10.95;;;32.50;44.10;;;;;;5025316;28;20022;-88
2021/07/18 12:18:56;;;;;;;11.70;10.57;;;32.70;43.70;;;;;;5016111;28;20026;-89
2021/07/18 12:21:31;;;;;;;15.55;11.35;;;32.90;43.50;;;;;;5033756;28;20053;-89
2021/07/18 12:24:17;;;;;;;13.00;10.57;;;33.00;42.90;;;;;;5020018;28;20037;-89
2021/07/18 12:27:01;;;;;;;12.45;10.95;;;33.20;41.90;;;;;;5015020;28;20026;-89
2021/07/18 12:29:32;;;;;;;16.83;10.70;;;33.20;43.40;;;;;;5035313;28;20038;-90
2021/07/18 12:31:59;;;;;;;14.82;9.68;;;33.20;42.20;;;;;;5041936;28;20021;-90
2021/07/18 12:34:28;;;;;;;14.07;10.63;;;33.30;42.40;;;;;;5025005;28;20029;-90
2021/07/18 12:37:13;;;;;;;17.40;11.05;;;33.20;41.20;;;;;;5017651;28;20033;-91
2021/07/18 12:39:44;;;;;;;14.13;10.15;;;33.00;41.60;;;;;;5023943;28;20018;-91
2021/07/18 12:42:38;;;;;;;13.65;10.05;;;32.90;41.50;;;;;;5024429;28;20029;-89